createdAt,value
2023-03-05T00:02:06.002Z,2.53
2023-03-05T00:05:11.316Z,2.48
2023-03-05T00:08:15.800Z,2.42
2023-03-05T00:11:21.128Z,2.37
2023-03-05T00:14:25.559Z,2.30
2023-03-05T00:17:30.309Z,2.20
2023-03-05T00:20:36.065Z,2.22
2023-03-05T00:23:40.367Z,2.20
2023-03-05T00:26:45.930Z,2.17
2023-03-05T00:29:50.135Z,2.19
2023-03-05T00:32:54.497Z,2.12
2023-03-05T00:36:01.714Z,2.09
2023-03-05T00:39:06.397Z,2.11
2023-03-05T00:42:10.591Z,2.08
2023-03-05T00:45:14.694Z,2.09
2023-03-05T00:48:18.865Z,2.13
2023-03-05T00:51:24.680Z,2.12
2023-03-05T00:54:29.038Z,2.08
2023-03-05T00:57:33.468Z,2.02
2023-03-05T01:00:38.043Z,1.97
2023-03-05T01:03:42.732Z,1.94
2023-03-05T01:06:47.161Z,1.92
2023-03-05T01:09:51.625Z,1.99
2023-03-05T01:12:57.355Z,1.91
2023-03-05T01:16:02.177Z,1.88
2023-03-05T01:19:06.257Z,1.82
2023-03-05T01:22:10.650Z,1.86
2023-03-05T01:25:16.437Z,1.79
2023-03-05T01:28:21.002Z,1.74
2023-03-05T01:31:25.205Z,1.72
2023-03-05T01:34:29.951Z,1.72
2023-03-05T01:37:33.823Z,1.68
2023-03-05T01:40:38.173Z,1.70
2023-03-05T01:43:44.354Z,1.73
2023-03-05T01:46:48.682Z,1.73
2023-03-05T01:49:54.424Z,1.75
2023-03-05T01:53:07.084Z,1.78
2023-03-05T01:56:11.895Z,1.73
2023-03-05T01:59:17.585Z,1.75
2023-03-05T02:02:22.349Z,1.72
2023-03-05T02:05:31.162Z,1.75
2023-03-05T02:08:35.643Z,1.70
2023-03-05T02:11:40.250Z,1.67
2023-03-05T02:14:48.486Z,1.58
2023-03-05T02:17:52.981Z,1.61
2023-03-05T02:20:57.315Z,1.60
2023-03-05T02:24:02.058Z,1.59
2023-03-05T02:27:07.125Z,1.58
2023-03-05T02:30:12.681Z,1.62
2023-03-05T02:33:19.558Z,1.58
2023-03-05T02:36:24.036Z,1.53
2023-03-05T02:39:28.519Z,1.53
2023-03-05T02:42:33.637Z,1.52
2023-03-05T02:45:38.987Z,1.50
2023-03-05T02:48:43.234Z,1.50
2023-03-05T02:51:47.455Z,1.51
2023-03-05T02:54:53.026Z,1.50
2023-03-05T02:57:57.544Z,1.42
2023-03-05T03:01:01.788Z,1.35
2023-03-05T03:04:06.092Z,1.29
2023-03-05T03:07:14.240Z,1.24
2023-03-05T03:10:18.920Z,1.24
2023-03-05T03:13:26.274Z,1.22
2023-03-05T03:16:31.060Z,1.25
2023-03-05T03:19:37.427Z,1.28
2023-03-05T03:22:43.346Z,1.27
2023-03-05T03:25:48.220Z,1.29
2023-03-05T03:28:52.505Z,1.23
2023-03-05T03:31:57.169Z,1.23
2023-03-05T03:35:02.188Z,1.23
2023-03-05T03:38:06.602Z,1.31
2023-03-05T03:41:10.821Z,1.28
2023-03-05T03:44:17.962Z,1.21
2023-03-05T03:47:22.290Z,1.19
2023-03-05T03:50:27.814Z,1.22
2023-03-05T03:53:32.240Z,1.27
2023-03-05T03:56:36.877Z,1.27
2023-03-05T03:59:41.241Z,1.23
2023-03-05T04:02:45.785Z,1.28
2023-03-05T04:05:50.317Z,1.30
2023-03-05T04:08:54.970Z,1.33
2023-03-05T04:11:59.316Z,1.28
2023-03-05T04:15:05.786Z,1.22
2023-03-05T04:18:11.342Z,1.17
2023-03-05T04:21:16.097Z,1.15
2023-03-05T04:24:20.776Z,1.18
2023-03-05T04:27:25.088Z,1.13
2023-03-05T04:30:29.277Z,1.09
2023-03-05T04:33:33.950Z,1.11
2023-03-05T04:36:38.260Z,1.07
2023-03-05T04:39:42.503Z,1.04
2023-03-05T04:42:47.097Z,1.07
2023-03-05T04:45:51.216Z,1.02
2023-03-05T04:48:56.856Z,1.07
2023-03-05T04:52:01.556Z,1.09
2023-03-05T04:55:06.785Z,1.09
2023-03-05T04:58:11.416Z,1.12
2023-03-05T05:01:15.601Z,1.09
2023-03-05T05:04:19.732Z,1.13
2023-03-05T05:07:24.218Z,1.17
2023-03-05T05:10:28.882Z,1.24
2023-03-05T05:13:34.048Z,1.26
2023-03-05T05:16:38.445Z,1.23
2023-03-05T05:19:42.600Z,1.22
2023-03-05T05:22:46.636Z,1.24
2023-03-05T05:26:02.544Z,1.25
2023-03-05T05:29:06.946Z,1.25
2023-03-05T05:32:11.011Z,1.24
2023-03-05T05:35:15.320Z,1.27
2023-03-05T05:38:19.996Z,1.30
2023-03-05T05:41:24.824Z,1.33
2023-03-05T05:44:29.240Z,1.37
2023-03-05T05:47:33.428Z,1.40
2023-03-05T05:50:39.309Z,1.33
2023-03-05T05:53:44.120Z,1.35
2023-03-05T05:56:48.604Z,1.39
2023-03-05T05:59:53.218Z,1.40
2023-03-05T06:02:57.453Z,1.38
2023-03-05T06:06:02.005Z,1.38
2023-03-05T06:09:06.325Z,1.34
2023-03-05T06:12:11.296Z,1.30
2023-03-05T06:15:15.366Z,1.33
2023-03-05T06:18:19.691Z,1.26
2023-03-05T06:21:24.088Z,1.33
2023-03-05T06:24:28.802Z,1.32
2023-03-05T06:27:35.000Z,1.28
2023-03-05T06:30:39.491Z,1.30
2023-03-05T06:33:44.559Z,1.30
2023-03-05T06:36:48.961Z,1.27
2023-03-05T06:39:53.316Z,1.34
2023-03-05T06:42:57.654Z,1.46
2023-03-05T06:46:24.511Z,1.45
2023-03-05T06:49:29.126Z,1.41
2023-03-05T06:52:33.322Z,1.30
2023-03-05T06:55:39.805Z,1.24
2023-03-05T06:58:46.202Z,1.17
2023-03-05T07:01:50.804Z,1.13
2023-03-05T07:04:55.198Z,1.10
2023-03-05T07:07:59.666Z,1.16
2023-03-05T07:11:09.890Z,1.15
2023-03-05T07:14:14.220Z,1.18
2023-03-05T07:17:18.767Z,1.17
2023-03-05T07:20:23.525Z,1.24
2023-03-05T07:23:28.733Z,1.30
2023-03-05T07:26:33.658Z,1.33
2023-03-05T07:29:37.958Z,1.38
2023-03-05T07:32:42.424Z,1.31
2023-03-05T07:35:46.872Z,1.37
2023-03-05T07:38:51.326Z,1.38
2023-03-05T07:41:55.723Z,1.43
2023-03-05T07:44:59.976Z,1.39
2023-03-05T07:48:04.459Z,1.47
2023-03-05T07:51:17.284Z,1.47
2023-03-05T07:54:21.453Z,1.44
2023-03-05T07:57:25.722Z,1.49
2023-03-05T08:00:30.127Z,1.49
2023-03-05T08:03:34.394Z,1.46
2023-03-05T08:06:42.241Z,1.43
2023-03-05T08:09:46.280Z,1.46
2023-03-05T08:12:50.360Z,1.55
2023-03-05T08:15:54.714Z,1.65
2023-03-05T08:19:00.438Z,1.75
2023-03-05T08:22:04.571Z,1.81
2023-03-05T08:25:10.238Z,1.87
2023-03-05T08:28:16.622Z,1.88
2023-03-05T08:31:24.489Z,2.03
2023-03-05T08:34:28.726Z,2.13
2023-03-05T08:37:33.519Z,2.08
2023-03-05T08:40:38.155Z,2.12
2023-03-05T08:43:42.969Z,2.07
2023-03-05T08:46:47.551Z,2.06
2023-03-05T08:49:55.498Z,2.16
2023-03-05T08:53:00.166Z,2.25
2023-03-05T08:56:04.940Z,2.24
2023-03-05T08:59:12.597Z,1.93
2023-03-05T09:02:17.743Z,1.71
2023-03-05T09:05:22.247Z,1.47
2023-03-05T09:08:27.109Z,1.42
2023-03-05T09:11:31.384Z,1.38
2023-03-05T09:14:35.563Z,1.38
2023-03-05T09:17:41.957Z,1.38
2023-03-05T09:20:46.227Z,1.39
2023-03-05T09:23:50.789Z,1.36
2023-03-05T09:27:00.336Z,1.48
2023-03-05T09:30:06.334Z,1.69
2023-03-05T09:33:11.474Z,1.88
2023-03-05T09:36:24.289Z,1.96
2023-03-05T09:39:28.554Z,2.11
2023-03-05T09:43:24.175Z,2.26
2023-03-05T09:46:54.799Z,2.26
2023-03-05T09:50:11.350Z,2.38
2023-03-05T09:53:26.455Z,2.59
2023-03-05T09:56:40.590Z,2.84
2023-03-05T10:00:02.218Z,3.03
2023-03-05T10:03:19.711Z,2.95
2023-03-05T10:06:32.445Z,3.01
2023-03-05T10:09:58.102Z,2.98
2023-03-05T10:13:22.840Z,3.16
2023-03-05T10:16:48.396Z,3.19
2023-03-05T10:20:21.760Z,3.09
2023-03-05T10:24:04.595Z,3.09
2023-03-05T10:27:20.425Z,3.27
2023-03-05T10:30:41.205Z,3.20
2023-03-05T10:34:12.300Z,3.36
2023-03-05T10:37:27.808Z,3.60
2023-03-05T10:40:55.164Z,3.62
2023-03-05T10:44:24.593Z,3.84
2023-03-05T10:48:11.539Z,3.79
2023-03-05T10:51:23.393Z,3.78
2023-03-05T10:54:32.843Z,3.92
2023-03-05T10:57:37.280Z,4.06
2023-03-05T11:00:58.829Z,4.11
2023-03-05T11:04:04.900Z,4.42
2023-03-05T11:07:33.007Z,4.65
2023-03-05T11:10:37.182Z,4.79
2023-03-05T11:14:05.666Z,4.72
2023-03-05T11:17:47.870Z,4.62
2023-03-05T11:21:06.574Z,4.77
2023-03-05T11:24:14.058Z,4.64
2023-03-05T11:27:56.075Z,4.87
2023-03-05T11:31:13.495Z,4.79
2023-03-05T11:34:35.407Z,4.75
2023-03-05T11:37:40.135Z,4.76
2023-03-05T11:40:44.897Z,4.99
2023-03-05T11:43:52.313Z,5.39
2023-03-05T11:47:21.047Z,5.49
2023-03-05T11:50:32.834Z,5.34
2023-03-05T11:53:38.706Z,4.84
2023-03-05T11:56:45.775Z,4.56
2023-03-05T11:59:52.921Z,4.34
2023-03-05T12:03:02.613Z,4.20
2023-03-05T12:06:49.049Z,4.16
2023-03-05T12:09:53.787Z,4.05
2023-03-05T12:13:26.760Z,4.05
2023-03-05T12:16:53.866Z,4.12
2023-03-05T12:20:18.021Z,4.27
2023-03-05T12:23:23.357Z,4.59
2023-03-05T12:27:09.762Z,4.83
2023-03-05T12:30:49.538Z,4.80
2023-03-05T12:33:57.006Z,4.81
2023-03-05T12:37:01.490Z,5.03
2023-03-05T12:40:32.524Z,5.26
2023-03-05T12:43:37.072Z,5.38
2023-03-05T12:47:06.033Z,5.36
2023-03-05T12:50:32.866Z,5.45
2023-03-05T12:53:37.528Z,5.54
2023-03-05T12:56:46.448Z,5.93
2023-03-05T13:00:13.797Z,5.96
2023-03-05T13:03:58.156Z,5.97
2023-03-05T13:07:14.007Z,5.96
2023-03-05T13:10:29.511Z,5.58
2023-03-05T13:13:38.187Z,5.20
2023-03-05T13:16:42.665Z,5.22
2023-03-05T13:19:47.445Z,5.22
2023-03-05T13:23:14.363Z,5.24
2023-03-05T13:26:20.800Z,5.22
2023-03-05T13:29:28.366Z,5.02
2023-03-05T13:32:33.527Z,4.85
2023-03-05T13:35:46.293Z,4.79
2023-03-05T13:38:51.092Z,4.86
2023-03-05T13:42:02.751Z,4.83
2023-03-05T13:45:31.162Z,4.84
2023-03-05T13:48:35.663Z,4.90
2023-03-05T13:51:48.026Z,4.85
2023-03-05T13:54:52.449Z,4.97
2023-03-05T13:57:56.638Z,5.01
2023-03-05T14:01:21.818Z,4.77
2023-03-05T14:04:32.224Z,4.69
2023-03-05T14:07:41.456Z,4.84
2023-03-05T14:10:45.919Z,4.81
2023-03-05T14:14:05.715Z,4.89
2023-03-05T14:17:41.840Z,4.82
2023-03-05T14:21:12.216Z,4.65
2023-03-05T14:24:28.401Z,4.39
2023-03-05T14:27:36.666Z,4.39
2023-03-05T14:30:51.062Z,4.44
2023-03-05T14:34:04.356Z,4.41
2023-03-05T14:37:24.078Z,4.53
2023-03-05T14:40:34.325Z,4.50
2023-03-05T14:43:38.706Z,4.56
2023-03-05T14:46:48.144Z,4.54
2023-03-05T14:49:52.890Z,4.54
2023-03-05T14:53:08.358Z,4.49
2023-03-05T14:56:33.682Z,4.50
2023-03-05T14:59:37.895Z,4.48
2023-03-05T15:02:42.634Z,4.40
2023-03-05T15:05:51.609Z,4.48
2023-03-05T15:08:56.161Z,4.33
2023-03-05T15:12:00.383Z,4.35
2023-03-05T15:15:06.528Z,4.33
2023-03-05T15:18:14.587Z,4.17
2023-03-05T15:21:19.228Z,4.01
2023-03-05T15:24:23.338Z,3.89
2023-03-05T15:27:27.661Z,3.93
2023-03-05T15:30:39.463Z,3.89
2023-03-05T15:33:43.582Z,3.89
2023-03-05T15:36:47.900Z,3.77
2023-03-05T15:39:53.103Z,3.76
2023-03-05T15:42:59.474Z,3.71
2023-03-05T15:46:06.866Z,3.63
2023-03-05T15:49:11.588Z,3.59
2023-03-05T15:52:15.820Z,3.55
2023-03-05T15:55:20.679Z,3.53
2023-03-05T15:58:24.972Z,3.57
2023-03-05T16:01:29.500Z,3.50
2023-03-05T16:04:34.352Z,3.39
2023-03-05T16:07:44.673Z,3.35
2023-03-05T16:10:49.024Z,3.37
2023-03-05T16:13:53.570Z,3.43
2023-03-05T16:17:01.081Z,3.33
2023-03-05T16:20:06.907Z,3.27
2023-03-05T16:23:11.148Z,3.23
2023-03-05T16:26:15.694Z,3.17
2023-03-05T16:29:20.169Z,3.08
2023-03-05T16:32:25.444Z,3.18
2023-03-05T16:35:30.078Z,3.18
2023-03-05T16:38:34.425Z,3.23
2023-03-05T16:41:43.386Z,3.21
2023-03-05T16:44:49.894Z,3.20
2023-03-05T16:47:54.803Z,3.11
2023-03-05T16:51:00.384Z,3.09
2023-03-05T16:54:05.046Z,3.07
2023-03-05T16:57:09.903Z,3.02
2023-03-05T17:00:15.299Z,2.96
2023-03-05T17:03:19.906Z,2.89
2023-03-05T17:06:27.774Z,2.83
2023-03-05T17:09:32.000Z,2.88
2023-03-05T17:12:36.507Z,2.86
2023-03-05T17:15:40.778Z,2.86
2023-03-05T17:18:45.497Z,2.87
2023-03-05T17:21:52.081Z,2.87
2023-03-05T17:24:56.097Z,2.87
2023-03-05T17:28:00.664Z,2.85
2023-03-05T17:31:04.992Z,2.82
2023-03-05T17:34:10.139Z,2.87
2023-03-05T17:37:16.188Z,2.82
2023-03-05T17:40:21.412Z,2.80
2023-03-05T17:43:25.840Z,2.74
2023-03-05T17:46:31.657Z,2.77
2023-03-05T17:49:36.915Z,2.77
2023-03-05T17:52:42.892Z,2.61
2023-03-05T17:55:49.800Z,2.52
2023-03-05T17:58:55.745Z,2.52
2023-03-05T18:02:03.071Z,2.52
2023-03-05T18:05:09.694Z,2.45
2023-03-05T18:08:15.241Z,2.48
2023-03-05T18:11:21.714Z,2.45
2023-03-05T18:14:26.718Z,2.43
2023-03-05T18:17:31.556Z,2.37
2023-03-05T18:20:37.503Z,2.36
2023-03-05T18:23:41.688Z,2.32
2023-03-05T18:26:46.380Z,2.30
2023-03-05T18:29:53.957Z,2.35
2023-03-05T18:32:59.485Z,2.32
2023-03-05T18:36:04.494Z,2.28
2023-03-05T18:39:11.424Z,2.26
2023-03-05T18:42:15.935Z,2.18
2023-03-05T18:45:22.935Z,1.97
2023-03-05T18:48:27.119Z,1.87
2023-03-05T18:51:32.198Z,1.73
2023-03-05T18:54:36.461Z,1.74
2023-03-05T18:57:42.794Z,1.75
2023-03-05T19:00:49.077Z,1.78
2023-03-05T19:03:58.792Z,1.82
2023-03-05T19:07:04.651Z,1.77
2023-03-05T19:10:15.784Z,1.82
2023-03-05T19:13:41.737Z,1.83
2023-03-05T19:16:49.723Z,1.87
2023-03-05T19:19:58.994Z,1.86
2023-03-05T19:23:04.781Z,1.72
2023-03-05T19:26:10.934Z,1.61
2023-03-05T19:29:16.739Z,1.55
2023-03-05T19:32:27.848Z,1.51
2023-03-05T19:35:33.312Z,1.52
2023-03-05T19:38:39.339Z,1.64
2023-03-05T19:41:44.735Z,1.68
2023-03-05T19:44:50.001Z,1.57
2023-03-05T19:47:55.856Z,1.48
2023-03-05T19:51:00.738Z,1.52
2023-03-05T19:54:06.519Z,1.52
2023-03-05T19:57:12.513Z,1.57
2023-03-05T20:00:27.449Z,1.54
2023-03-05T20:03:31.918Z,1.52
2023-03-05T20:06:36.166Z,1.48
2023-03-05T20:09:40.577Z,1.45
2023-03-05T20:12:48.089Z,1.53
2023-03-05T20:15:55.839Z,1.53
2023-03-05T20:19:02.965Z,1.55
2023-03-05T20:22:07.268Z,1.52
2023-03-05T20:25:16.337Z,1.42
2023-03-05T20:28:25.818Z,1.37
2023-03-05T20:31:31.384Z,1.39
2023-03-05T20:34:35.874Z,1.42
2023-03-05T20:37:49.195Z,1.40
2023-03-05T20:41:01.109Z,1.36
2023-03-05T20:44:07.577Z,1.33
2023-03-05T20:47:35.043Z,1.27
2023-03-05T20:50:40.964Z,1.23
2023-03-05T20:53:45.909Z,1.16
2023-03-05T20:56:49.885Z,1.19
2023-03-05T20:59:54.316Z,1.29
2023-03-05T21:02:58.960Z,1.38
2023-03-05T21:06:04.892Z,1.46
2023-03-05T21:09:09.070Z,1.40
2023-03-05T21:12:13.475Z,1.31
2023-03-05T21:15:30.157Z,1.30
2023-03-05T21:18:35.224Z,1.37
2023-03-05T21:21:45.520Z,1.35
2023-03-05T21:25:02.012Z,1.28
2023-03-05T21:28:18.775Z,1.23
2023-03-05T21:31:23.507Z,1.21
2023-03-05T21:34:27.748Z,1.26
2023-03-05T21:37:32.221Z,1.35
2023-03-05T21:40:43.504Z,1.40
2023-03-05T21:43:48.043Z,1.42
2023-03-05T21:46:52.520Z,1.42
2023-03-05T21:49:57.181Z,1.38
2023-03-05T21:53:02.751Z,1.38
2023-03-05T21:56:18.163Z,1.32
2023-03-05T21:59:22.410Z,1.38
2023-03-05T22:02:26.767Z,1.35
2023-03-05T22:05:31.303Z,1.41
2023-03-05T22:08:35.948Z,1.32
2023-03-05T22:11:45.367Z,1.37
2023-03-05T22:14:49.974Z,1.45
2023-03-05T22:17:54.553Z,1.51
2023-03-05T22:21:00.085Z,1.58
2023-03-05T22:24:05.423Z,1.62
2023-03-05T22:27:09.831Z,1.64
2023-03-05T22:30:14.388Z,1.67
2023-03-05T22:33:20.740Z,1.72
2023-03-05T22:36:26.526Z,1.72
2023-03-05T22:39:47.744Z,1.67
2023-03-05T22:47:07.968Z,1.58
2023-03-05T22:50:12.533Z,1.48
2023-03-05T22:53:16.594Z,1.39
2023-03-05T22:56:21.312Z,1.31
2023-03-05T22:59:25.627Z,1.21
2023-03-05T23:02:31.128Z,1.19
2023-03-05T23:05:37.772Z,1.17
2023-03-05T23:08:41.957Z,1.17
2023-03-05T23:11:46.420Z,1.09
2023-03-05T23:14:50.336Z,1.05
2023-03-05T23:17:55.090Z,1.06
2023-03-05T23:20:59.502Z,1.09
2023-03-05T23:24:04.062Z,1.04
2023-03-05T23:27:08.839Z,1.06
2023-03-05T23:30:18.026Z,1.12
2023-03-05T23:33:23.348Z,1.09
2023-03-05T23:36:27.326Z,1.05
2023-03-05T23:39:31.744Z,1.07
2023-03-05T23:42:38.217Z,1.05
2023-03-05T23:45:44.974Z,1.02
2023-03-05T23:48:49.415Z,0.94
2023-03-05T23:51:53.765Z,0.96
2023-03-05T23:54:58.947Z,0.96
2023-03-05T23:58:03.674Z,1.02
